sensor_id;sensor_type;location;lat;lon;timestamp;P1;durP1;ratioP1;P2;durP2;ratioP2
72261;SDS011;60173;52.112;8.648;2023-03-03T00:00:39;73.43;;;32.72;;
72261;SDS011;60173;52.112;8.648;2023-03-03T00:03:06;73.30;;;32.25;;
72261;SDS011;60173;52.112;8.648;2023-03-03T00:05:35;68.22;;;31.10;;
72261;SDS011;60173;52.112;8.648;2023-03-03T00:08:01;63.40;;;29.77;;
72261;SDS011;60173;52.112;8.648;2023-03-03T00:10:28;70.85;;;31.25;;
72261;SDS011;60173;52.112;8.648;2023-03-03T00:12:55;62.58;;;30.17;;
72261;SDS011;60173;52.112;8.648;2023-03-03T00:15:22;51.85;;;26.35;;
72261;SDS011;60173;52.112;8.648;2023-03-03T00:17:50;47.72;;;23.90;;
72261;SDS011;60173;52.112;8.648;2023-03-03T00:23:23;47.10;;;23.85;;
72261;SDS011;60173;52.112;8.648;2023-03-03T00:26:00;57.42;;;26.45;;
72261;SDS011;60173;52.112;8.648;2023-03-03T00:28:31;46.83;;;24.48;;
72261;SDS011;60173;52.112;8.648;2023-03-03T00:31:15;50.28;;;24.80;;
72261;SDS011;60173;52.112;8.648;2023-03-03T00:33:52;43.05;;;22.30;;
72261;SDS011;60173;52.112;8.648;2023-03-03T00:41:57;41.40;;;22.52;;
72261;SDS011;60173;52.112;8.648;2023-03-03T00:44:30;42.90;;;21.83;;
72261;SDS011;60173;52.112;8.648;2023-03-03T00:49:48;41.10;;;21.38;;
72261;SDS011;60173;52.112;8.648;2023-03-03T00:52:16;41.33;;;21.00;;
72261;SDS011;60173;52.112;8.648;2023-03-03T00:54:43;42.90;;;22.27;;
72261;SDS011;60173;52.112;8.648;2023-03-03T00:57:10;40.42;;;20.52;;
72261;SDS011;60173;52.112;8.648;2023-03-03T00:59:37;43.58;;;21.30;;
72261;SDS011;60173;52.112;8.648;2023-03-03T01:02:04;42.90;;;21.58;;
72261;SDS011;60173;52.112;8.648;2023-03-03T01:04:31;35.35;;;19.48;;
72261;SDS011;60173;52.112;8.648;2023-03-03T01:06:57;41.53;;;21.48;;
72261;SDS011;60173;52.112;8.648;2023-03-03T01:09:24;37.35;;;19.58;;
72261;SDS011;60173;52.112;8.648;2023-03-03T01:11:50;37.95;;;19.98;;
72261;SDS011;60173;52.112;8.648;2023-03-03T01:14:16;37.65;;;20.60;;
72261;SDS011;60173;52.112;8.648;2023-03-03T01:16:43;47.97;;;24.73;;
72261;SDS011;60173;52.112;8.648;2023-03-03T01:19:09;64.55;;;29.38;;
72261;SDS011;60173;52.112;8.648;2023-03-03T01:21:36;67.70;;;30.60;;
72261;SDS011;60173;52.112;8.648;2023-03-03T01:24:02;72.07;;;31.70;;
72261;SDS011;60173;52.112;8.648;2023-03-03T01:26:28;70.65;;;31.27;;
72261;SDS011;60173;52.112;8.648;2023-03-03T01:28:55;79.30;;;33.47;;
72261;SDS011;60173;52.112;8.648;2023-03-03T01:31:21;86.18;;;35.75;;
72261;SDS011;60173;52.112;8.648;2023-03-03T01:33:47;74.32;;;31.85;;
72261;SDS011;60173;52.112;8.648;2023-03-03T01:36:14;72.43;;;31.30;;
72261;SDS011;60173;52.112;8.648;2023-03-03T01:38:41;84.53;;;33.75;;
72261;SDS011;60173;52.112;8.648;2023-03-03T01:41:07;77.40;;;32.65;;
72261;SDS011;60173;52.112;8.648;2023-03-03T01:43:33;83.68;;;33.88;;
72261;SDS011;60173;52.112;8.648;2023-03-03T01:48:36;73.82;;;32.83;;
72261;SDS011;60173;52.112;8.648;2023-03-03T01:53:49;68.32;;;31.67;;
72261;SDS011;60173;52.112;8.648;2023-03-03T01:56:18;77.97;;;34.83;;
72261;SDS011;60173;52.112;8.648;2023-03-03T01:58:48;68.22;;;30.90;;
72261;SDS011;60173;52.112;8.648;2023-03-03T02:01:22;71.40;;;31.02;;
72261;SDS011;60173;52.112;8.648;2023-03-03T02:03:52;79.40;;;33.53;;
72261;SDS011;60173;52.112;8.648;2023-03-03T02:06:21;79.10;;;34.00;;
72261;SDS011;60173;52.112;8.648;2023-03-03T02:11:46;87.10;;;36.20;;
72261;SDS011;60173;52.112;8.648;2023-03-03T02:14:15;97.63;;;37.00;;
72261;SDS011;60173;52.112;8.648;2023-03-03T02:16:41;100.82;;;38.75;;
72261;SDS011;60173;52.112;8.648;2023-03-03T02:19:12;92.95;;;36.17;;
72261;SDS011;60173;52.112;8.648;2023-03-03T02:21:50;83.60;;;33.30;;
72261;SDS011;60173;52.112;8.648;2023-03-03T02:24:21;94.85;;;34.50;;
72261;SDS011;60173;52.112;8.648;2023-03-03T02:26:53;95.75;;;35.95;;
72261;SDS011;60173;52.112;8.648;2023-03-03T02:29:20;100.10;;;36.50;;
72261;SDS011;60173;52.112;8.648;2023-03-03T02:31:47;105.35;;;37.70;;
72261;SDS011;60173;52.112;8.648;2023-03-03T02:34:13;106.03;;;37.83;;
72261;SDS011;60173;52.112;8.648;2023-03-03T02:36:40;113.85;;;39.10;;
72261;SDS011;60173;52.112;8.648;2023-03-03T02:39:22;123.82;;;39.72;;
72261;SDS011;60173;52.112;8.648;2023-03-03T02:41:57;111.28;;;36.28;;
72261;SDS011;60173;52.112;8.648;2023-03-03T02:44:46;110.22;;;36.70;;
72261;SDS011;60173;52.112;8.648;2023-03-03T02:47:13;113.32;;;36.13;;
72261;SDS011;60173;52.112;8.648;2023-03-03T02:49:39;102.30;;;35.30;;
72261;SDS011;60173;52.112;8.648;2023-03-03T02:52:06;118.68;;;36.67;;
72261;SDS011;60173;52.112;8.648;2023-03-03T02:54:34;116.70;;;37.67;;
72261;SDS011;60173;52.112;8.648;2023-03-03T02:57:00;125.10;;;37.78;;
72261;SDS011;60173;52.112;8.648;2023-03-03T02:59:27;128.63;;;39.33;;
72261;SDS011;60173;52.112;8.648;2023-03-03T03:01:54;117.93;;;36.03;;
72261;SDS011;60173;52.112;8.648;2023-03-03T03:04:21;133.77;;;38.08;;
72261;SDS011;60173;52.112;8.648;2023-03-03T03:06:49;123.50;;;36.75;;
72261;SDS011;60173;52.112;8.648;2023-03-03T03:09:18;118.70;;;35.08;;
72261;SDS011;60173;52.112;8.648;2023-03-03T03:11:45;114.82;;;36.20;;
72261;SDS011;60173;52.112;8.648;2023-03-03T03:14:12;121.13;;;36.88;;
72261;SDS011;60173;52.112;8.648;2023-03-03T03:16:39;119.63;;;37.15;;
72261;SDS011;60173;52.112;8.648;2023-03-03T03:19:06;121.20;;;35.88;;
72261;SDS011;60173;52.112;8.648;2023-03-03T03:21:33;125.15;;;36.72;;
72261;SDS011;60173;52.112;8.648;2023-03-03T03:24:00;132.07;;;37.00;;
72261;SDS011;60173;52.112;8.648;2023-03-03T03:26:26;127.97;;;36.30;;
72261;SDS011;60173;52.112;8.648;2023-03-03T03:28:53;141.75;;;38.85;;
72261;SDS011;60173;52.112;8.648;2023-03-03T03:31:19;120.97;;;35.05;;
72261;SDS011;60173;52.112;8.648;2023-03-03T03:33:47;116.90;;;33.58;;
72261;SDS011;60173;52.112;8.648;2023-03-03T03:36:14;120.63;;;33.28;;
72261;SDS011;60173;52.112;8.648;2023-03-03T03:38:41;125.50;;;35.22;;
72261;SDS011;60173;52.112;8.648;2023-03-03T03:41:08;137.05;;;37.97;;
72261;SDS011;60173;52.112;8.648;2023-03-03T03:43:36;136.27;;;37.22;;
72261;SDS011;60173;52.112;8.648;2023-03-03T03:46:02;133.68;;;35.58;;
72261;SDS011;60173;52.112;8.648;2023-03-03T03:48:29;129.90;;;37.75;;
72261;SDS011;60173;52.112;8.648;2023-03-03T03:50:55;120.10;;;34.55;;
72261;SDS011;60173;52.112;8.648;2023-03-03T03:53:21;120.13;;;34.47;;
72261;SDS011;60173;52.112;8.648;2023-03-03T03:55:48;124.68;;;35.17;;
72261;SDS011;60173;52.112;8.648;2023-03-03T03:58:14;123.90;;;36.47;;
72261;SDS011;60173;52.112;8.648;2023-03-03T04:00:43;123.65;;;34.00;;
72261;SDS011;60173;52.112;8.648;2023-03-03T04:03:10;134.00;;;37.05;;
72261;SDS011;60173;52.112;8.648;2023-03-03T04:05:37;125.13;;;36.72;;
72261;SDS011;60173;52.112;8.648;2023-03-03T04:08:03;138.57;;;38.05;;
72261;SDS011;60173;52.112;8.648;2023-03-03T04:10:29;135.27;;;37.60;;
72261;SDS011;60173;52.112;8.648;2023-03-03T04:12:56;131.90;;;37.22;;
72261;SDS011;60173;52.112;8.648;2023-03-03T04:15:22;139.77;;;37.33;;
72261;SDS011;60173;52.112;8.648;2023-03-03T04:17:49;135.98;;;37.30;;
72261;SDS011;60173;52.112;8.648;2023-03-03T04:20:15;129.50;;;36.50;;
72261;SDS011;60173;52.112;8.648;2023-03-03T04:22:42;128.35;;;36.47;;
72261;SDS011;60173;52.112;8.648;2023-03-03T04:25:10;124.15;;;34.47;;
72261;SDS011;60173;52.112;8.648;2023-03-03T04:27:39;123.07;;;34.65;;
72261;SDS011;60173;52.112;8.648;2023-03-03T04:30:06;115.35;;;32.80;;
72261;SDS011;60173;52.112;8.648;2023-03-03T04:32:33;124.38;;;34.53;;
72261;SDS011;60173;52.112;8.648;2023-03-03T04:34:59;121.82;;;34.33;;
72261;SDS011;60173;52.112;8.648;2023-03-03T04:37:33;129.25;;;37.17;;
72261;SDS011;60173;52.112;8.648;2023-03-03T04:40:00;134.02;;;37.22;;
72261;SDS011;60173;52.112;8.648;2023-03-03T04:42:26;146.90;;;38.10;;
72261;SDS011;60173;52.112;8.648;2023-03-03T04:44:52;136.20;;;37.47;;
72261;SDS011;60173;52.112;8.648;2023-03-03T04:47:19;148.88;;;38.85;;
72261;SDS011;60173;52.112;8.648;2023-03-03T04:49:45;147.48;;;37.97;;
72261;SDS011;60173;52.112;8.648;2023-03-03T04:52:11;135.32;;;35.50;;
72261;SDS011;60173;52.112;8.648;2023-03-03T04:54:38;153.88;;;41.17;;
72261;SDS011;60173;52.112;8.648;2023-03-03T04:57:04;140.13;;;36.67;;
72261;SDS011;60173;52.112;8.648;2023-03-03T04:59:30;153.55;;;39.65;;
72261;SDS011;60173;52.112;8.648;2023-03-03T05:01:57;135.63;;;38.22;;
72261;SDS011;60173;52.112;8.648;2023-03-03T05:04:23;146.60;;;40.08;;
72261;SDS011;60173;52.112;8.648;2023-03-03T05:06:49;146.32;;;38.78;;
72261;SDS011;60173;52.112;8.648;2023-03-03T05:09:16;143.73;;;36.97;;
72261;SDS011;60173;52.112;8.648;2023-03-03T05:11:42;132.60;;;35.70;;
72261;SDS011;60173;52.112;8.648;2023-03-03T05:14:08;140.93;;;36.13;;
72261;SDS011;60173;52.112;8.648;2023-03-03T05:16:35;129.13;;;37.13;;
72261;SDS011;60173;52.112;8.648;2023-03-03T05:19:01;121.30;;;35.35;;
72261;SDS011;60173;52.112;8.648;2023-03-03T05:21:27;130.27;;;36.22;;
72261;SDS011;60173;52.112;8.648;2023-03-03T05:23:54;142.18;;;36.60;;
72261;SDS011;60173;52.112;8.648;2023-03-03T05:26:20;135.85;;;35.90;;
72261;SDS011;60173;52.112;8.648;2023-03-03T05:28:46;137.05;;;36.50;;
72261;SDS011;60173;52.112;8.648;2023-03-03T05:31:13;137.80;;;36.55;;
72261;SDS011;60173;52.112;8.648;2023-03-03T05:33:40;133.43;;;37.03;;
72261;SDS011;60173;52.112;8.648;2023-03-03T05:36:06;125.63;;;34.38;;
72261;SDS011;60173;52.112;8.648;2023-03-03T05:38:33;121.15;;;35.00;;
72261;SDS011;60173;52.112;8.648;2023-03-03T05:40:59;120.25;;;33.25;;
72261;SDS011;60173;52.112;8.648;2023-03-03T05:43:25;123.13;;;34.67;;
72261;SDS011;60173;52.112;8.648;2023-03-03T05:45:55;125.75;;;36.85;;
72261;SDS011;60173;52.112;8.648;2023-03-03T05:48:22;127.78;;;36.28;;
72261;SDS011;60173;52.112;8.648;2023-03-03T05:50:49;129.57;;;35.42;;
72261;SDS011;60173;52.112;8.648;2023-03-03T05:53:15;146.65;;;37.53;;
72261;SDS011;60173;52.112;8.648;2023-03-03T05:55:41;142.40;;;40.05;;
72261;SDS011;60173;52.112;8.648;2023-03-03T05:58:08;151.13;;;40.10;;
72261;SDS011;60173;52.112;8.648;2023-03-03T06:00:34;148.13;;;38.80;;
72261;SDS011;60173;52.112;8.648;2023-03-03T06:03:00;146.77;;;37.55;;
72261;SDS011;60173;52.112;8.648;2023-03-03T06:05:27;131.82;;;35.53;;
72261;SDS011;60173;52.112;8.648;2023-03-03T06:07:53;138.38;;;36.40;;
72261;SDS011;60173;52.112;8.648;2023-03-03T06:10:20;131.10;;;35.42;;
72261;SDS011;60173;52.112;8.648;2023-03-03T06:12:46;131.88;;;37.08;;
72261;SDS011;60173;52.112;8.648;2023-03-03T06:15:12;140.75;;;37.92;;
72261;SDS011;60173;52.112;8.648;2023-03-03T06:17:39;157.40;;;40.13;;
72261;SDS011;60173;52.112;8.648;2023-03-03T06:20:05;143.55;;;39.05;;
72261;SDS011;60173;52.112;8.648;2023-03-03T06:22:32;155.73;;;40.88;;
72261;SDS011;60173;52.112;8.648;2023-03-03T06:24:58;163.48;;;43.42;;
72261;SDS011;60173;52.112;8.648;2023-03-03T06:27:25;150.88;;;41.40;;
72261;SDS011;60173;52.112;8.648;2023-03-03T06:29:51;147.23;;;41.05;;
72261;SDS011;60173;52.112;8.648;2023-03-03T06:32:17;150.30;;;40.85;;
72261;SDS011;60173;52.112;8.648;2023-03-03T06:34:44;158.80;;;42.72;;
72261;SDS011;60173;52.112;8.648;2023-03-03T06:37:10;166.85;;;43.47;;
72261;SDS011;60173;52.112;8.648;2023-03-03T06:39:36;159.52;;;43.53;;
72261;SDS011;60173;52.112;8.648;2023-03-03T06:42:03;167.00;;;43.90;;
72261;SDS011;60173;52.112;8.648;2023-03-03T06:44:29;163.10;;;43.92;;
72261;SDS011;60173;52.112;8.648;2023-03-03T06:46:56;163.52;;;43.83;;
72261;SDS011;60173;52.112;8.648;2023-03-03T06:49:22;158.50;;;42.95;;
72261;SDS011;60173;52.112;8.648;2023-03-03T06:51:49;152.00;;;39.65;;
72261;SDS011;60173;52.112;8.648;2023-03-03T06:54:16;144.32;;;39.78;;
72261;SDS011;60173;52.112;8.648;2023-03-03T06:56:45;140.43;;;38.95;;
72261;SDS011;60173;52.112;8.648;2023-03-03T06:59:18;128.38;;;36.00;;
72261;SDS011;60173;52.112;8.648;2023-03-03T07:01:47;131.10;;;38.10;;
72261;SDS011;60173;52.112;8.648;2023-03-03T07:06:47;146.32;;;41.50;;
72261;SDS011;60173;52.112;8.648;2023-03-03T07:09:18;154.50;;;41.35;;
72261;SDS011;60173;52.112;8.648;2023-03-03T07:11:47;136.15;;;42.05;;
72261;SDS011;60173;52.112;8.648;2023-03-03T07:14:15;133.70;;;38.38;;
72261;SDS011;60173;52.112;8.648;2023-03-03T07:16:43;128.48;;;37.45;;
72261;SDS011;60173;52.112;8.648;2023-03-03T07:19:44;138.32;;;40.83;;
72261;SDS011;60173;52.112;8.648;2023-03-03T07:22:10;127.00;;;38.13;;
72261;SDS011;60173;52.112;8.648;2023-03-03T07:24:40;123.75;;;38.03;;
72261;SDS011;60173;52.112;8.648;2023-03-03T07:29:46;134.65;;;40.30;;
72261;SDS011;60173;52.112;8.648;2023-03-03T07:32:20;122.47;;;38.03;;
72261;SDS011;60173;52.112;8.648;2023-03-03T07:34:51;121.45;;;36.42;;
72261;SDS011;60173;52.112;8.648;2023-03-03T07:37:28;122.45;;;37.08;;
72261;SDS011;60173;52.112;8.648;2023-03-03T07:39:56;121.20;;;35.97;;
72261;SDS011;60173;52.112;8.648;2023-03-03T07:42:25;124.93;;;37.47;;
72261;SDS011;60173;52.112;8.648;2023-03-03T07:44:56;124.00;;;38.72;;
72261;SDS011;60173;52.112;8.648;2023-03-03T07:47:25;123.15;;;39.08;;
72261;SDS011;60173;52.112;8.648;2023-03-03T07:49:59;131.10;;;39.63;;
72261;SDS011;60173;52.112;8.648;2023-03-03T07:52:44;120.15;;;37.83;;
72261;SDS011;60173;52.112;8.648;2023-03-03T07:55:25;131.77;;;38.78;;
72261;SDS011;60173;52.112;8.648;2023-03-03T08:03:11;121.95;;;37.38;;
72261;SDS011;60173;52.112;8.648;2023-03-03T08:05:43;108.75;;;35.25;;
72261;SDS011;60173;52.112;8.648;2023-03-03T08:10:59;103.00;;;32.25;;
72261;SDS011;60173;52.112;8.648;2023-03-03T08:21:05;124.97;;;36.25;;
72261;SDS011;60173;52.112;8.648;2023-03-03T08:23:33;126.43;;;37.05;;
72261;SDS011;60173;52.112;8.648;2023-03-03T08:26:00;120.68;;;33.20;;
72261;SDS011;60173;52.112;8.648;2023-03-03T08:28:26;116.63;;;34.95;;
72261;SDS011;60173;52.112;8.648;2023-03-03T08:30:52;106.53;;;33.88;;
72261;SDS011;60173;52.112;8.648;2023-03-03T08:33:34;112.25;;;34.13;;
72261;SDS011;60173;52.112;8.648;2023-03-03T08:36:00;101.72;;;32.08;;
72261;SDS011;60173;52.112;8.648;2023-03-03T08:38:27;109.85;;;32.63;;
72261;SDS011;60173;52.112;8.648;2023-03-03T08:40:53;99.72;;;30.27;;
72261;SDS011;60173;52.112;8.648;2023-03-03T08:43:20;103.70;;;32.72;;
72261;SDS011;60173;52.112;8.648;2023-03-03T08:45:47;94.35;;;30.70;;
72261;SDS011;60173;52.112;8.648;2023-03-03T08:48:15;96.70;;;30.77;;
72261;SDS011;60173;52.112;8.648;2023-03-03T08:50:42;95.75;;;32.15;;
72261;SDS011;60173;52.112;8.648;2023-03-03T08:53:09;92.35;;;31.60;;
72261;SDS011;60173;52.112;8.648;2023-03-03T08:55:36;97.13;;;31.40;;
72261;SDS011;60173;52.112;8.648;2023-03-03T08:58:02;103.25;;;32.47;;
72261;SDS011;60173;52.112;8.648;2023-03-03T09:00:29;92.68;;;30.88;;
72261;SDS011;60173;52.112;8.648;2023-03-03T09:02:55;93.28;;;32.42;;
72261;SDS011;60173;52.112;8.648;2023-03-03T09:05:22;89.72;;;30.23;;
72261;SDS011;60173;52.112;8.648;2023-03-03T09:07:49;92.53;;;30.55;;
72261;SDS011;60173;52.112;8.648;2023-03-03T09:10:17;101.18;;;33.28;;
72261;SDS011;60173;52.112;8.648;2023-03-03T09:12:46;88.57;;;31.10;;
72261;SDS011;60173;52.112;8.648;2023-03-03T09:17:42;87.40;;;31.13;;
72261;SDS011;60173;52.112;8.648;2023-03-03T09:20:30;85.75;;;30.50;;
72261;SDS011;60173;52.112;8.648;2023-03-03T09:23:23;98.00;;;34.67;;
72261;SDS011;60173;52.112;8.648;2023-03-03T09:25:49;97.40;;;35.00;;
72261;SDS011;60173;52.112;8.648;2023-03-03T09:28:30;121.28;;;39.17;;
72261;SDS011;60173;52.112;8.648;2023-03-03T09:30:58;107.85;;;36.60;;
72261;SDS011;60173;52.112;8.648;2023-03-03T09:33:45;94.28;;;32.80;;
72261;SDS011;60173;52.112;8.648;2023-03-03T09:38:56;91.20;;;32.88;;
72261;SDS011;60173;52.112;8.648;2023-03-03T09:41:28;104.07;;;35.42;;
72261;SDS011;60173;52.112;8.648;2023-03-03T09:47:14;98.72;;;35.45;;
72261;SDS011;60173;52.112;8.648;2023-03-03T09:50:01;101.07;;;34.50;;
72261;SDS011;60173;52.112;8.648;2023-03-03T09:52:41;99.57;;;37.03;;
72261;SDS011;60173;52.112;8.648;2023-03-03T09:55:24;104.68;;;36.80;;
72261;SDS011;60173;52.112;8.648;2023-03-03T10:06:37;118.88;;;40.05;;
72261;SDS011;60173;52.112;8.648;2023-03-03T10:20:21;97.40;;;34.38;;
72261;SDS011;60173;52.112;8.648;2023-03-03T10:23:19;100.00;;;35.08;;
72261;SDS011;60173;52.112;8.648;2023-03-03T10:25:58;95.80;;;34.40;;
72261;SDS011;60173;52.112;8.648;2023-03-03T10:31:14;93.47;;;35.20;;
72261;SDS011;60173;52.112;8.648;2023-03-03T10:41:55;100.32;;;36.38;;
72261;SDS011;60173;52.112;8.648;2023-03-03T10:47:24;95.30;;;35.53;;
72261;SDS011;60173;52.112;8.648;2023-03-03T10:52:45;94.88;;;36.17;;
72261;SDS011;60173;52.112;8.648;2023-03-03T10:55:26;109.43;;;37.30;;
72261;SDS011;60173;52.112;8.648;2023-03-03T11:03:46;90.38;;;32.28;;
72261;SDS011;60173;52.112;8.648;2023-03-03T11:12:03;100.15;;;36.33;;
72261;SDS011;60173;52.112;8.648;2023-03-03T11:23:24;81.97;;;30.42;;
72261;SDS011;60173;52.112;8.648;2023-03-03T11:26:07;81.68;;;29.60;;
72261;SDS011;60173;52.112;8.648;2023-03-03T11:28:49;78.88;;;29.27;;
72261;SDS011;60173;52.112;8.648;2023-03-03T11:31:37;73.53;;;27.30;;
72261;SDS011;60173;52.112;8.648;2023-03-03T11:34:20;78.00;;;28.85;;
72261;SDS011;60173;52.112;8.648;2023-03-03T11:37:07;73.43;;;29.00;;
72261;SDS011;60173;52.112;8.648;2023-03-03T11:39:37;76.32;;;28.95;;
72261;SDS011;60173;52.112;8.648;2023-03-03T11:45:13;83.53;;;31.10;;
72261;SDS011;60173;52.112;8.648;2023-03-03T11:47:47;80.22;;;29.75;;
72261;SDS011;60173;52.112;8.648;2023-03-03T11:50:21;80.95;;;30.48;;
72261;SDS011;60173;52.112;8.648;2023-03-03T11:55:35;80.95;;;28.63;;
72261;SDS011;60173;52.112;8.648;2023-03-03T12:03:30;72.75;;;27.35;;
72261;SDS011;60173;52.112;8.648;2023-03-03T12:08:37;70.95;;;27.20;;
72261;SDS011;60173;52.112;8.648;2023-03-03T12:16:23;68.68;;;26.85;;
72261;SDS011;60173;52.112;8.648;2023-03-03T12:27:14;59.63;;;23.25;;
72261;SDS011;60173;52.112;8.648;2023-03-03T12:38:39;60.13;;;23.70;;
72261;SDS011;60173;52.112;8.648;2023-03-03T12:41:26;58.65;;;22.73;;
72261;SDS011;60173;52.112;8.648;2023-03-03T12:44:01;56.58;;;22.63;;
72261;SDS011;60173;52.112;8.648;2023-03-03T12:46:47;59.05;;;23.75;;
72261;SDS011;60173;52.112;8.648;2023-03-03T12:49:17;51.85;;;21.92;;
72261;SDS011;60173;52.112;8.648;2023-03-03T12:57:12;50.88;;;21.48;;
72261;SDS011;60173;52.112;8.648;2023-03-03T12:59:54;58.72;;;23.25;;
72261;SDS011;60173;52.112;8.648;2023-03-03T13:02:38;56.65;;;23.25;;
72261;SDS011;60173;52.112;8.648;2023-03-03T13:10:55;52.42;;;21.40;;
72261;SDS011;60173;52.112;8.648;2023-03-03T13:16:23;55.45;;;22.10;;
72261;SDS011;60173;52.112;8.648;2023-03-03T13:19:07;59.67;;;22.95;;
72261;SDS011;60173;52.112;8.648;2023-03-03T13:24:34;56.88;;;22.08;;
72261;SDS011;60173;52.112;8.648;2023-03-03T13:27:10;54.53;;;21.52;;
72261;SDS011;60173;52.112;8.648;2023-03-03T13:29:47;50.42;;;20.92;;
72261;SDS011;60173;52.112;8.648;2023-03-03T13:32:22;51.78;;;20.77;;
72261;SDS011;60173;52.112;8.648;2023-03-03T13:37:31;50.20;;;20.27;;
72261;SDS011;60173;52.112;8.648;2023-03-03T13:40:05;51.78;;;20.80;;
72261;SDS011;60173;52.112;8.648;2023-03-03T13:45:39;51.95;;;20.85;;
72261;SDS011;60173;52.112;8.648;2023-03-03T13:48:57;48.28;;;19.33;;
72261;SDS011;60173;52.112;8.648;2023-03-03T14:05:55;39.13;;;16.80;;
72261;SDS011;60173;52.112;8.648;2023-03-03T14:19:18;43.38;;;18.42;;
72261;SDS011;60173;52.112;8.648;2023-03-03T14:24:53;34.88;;;14.80;;
72261;SDS011;60173;52.112;8.648;2023-03-03T14:27:35;51.10;;;20.98;;
72261;SDS011;60173;52.112;8.648;2023-03-03T14:33:06;49.90;;;19.63;;
72261;SDS011;60173;52.112;8.648;2023-03-03T14:35:50;46.35;;;19.90;;
72261;SDS011;60173;52.112;8.648;2023-03-03T14:41:10;43.85;;;19.75;;
72261;SDS011;60173;52.112;8.648;2023-03-03T14:43:43;47.78;;;19.83;;
72261;SDS011;60173;52.112;8.648;2023-03-03T14:46:21;46.05;;;19.92;;
72261;SDS011;60173;52.112;8.648;2023-03-03T14:48:54;45.70;;;20.67;;
72261;SDS011;60173;52.112;8.648;2023-03-03T14:51:32;45.00;;;19.63;;
72261;SDS011;60173;52.112;8.648;2023-03-03T14:54:14;48.97;;;19.95;;
72261;SDS011;60173;52.112;8.648;2023-03-03T14:59:29;52.55;;;20.63;;
72261;SDS011;60173;52.112;8.648;2023-03-03T15:02:41;49.65;;;20.48;;
72261;SDS011;60173;52.112;8.648;2023-03-03T15:04:43;49.85;;;20.35;;
72261;SDS011;60173;52.112;8.648;2023-03-03T15:09:51;49.00;;;20.33;;
72261;SDS011;60173;52.112;8.648;2023-03-03T15:12:25;54.10;;;22.38;;
72261;SDS011;60173;52.112;8.648;2023-03-03T15:17:36;53.95;;;22.40;;
72261;SDS011;60173;52.112;8.648;2023-03-03T15:20:09;58.33;;;21.80;;
72261;SDS011;60173;52.112;8.648;2023-03-03T15:22:48;56.63;;;21.58;;
72261;SDS011;60173;52.112;8.648;2023-03-03T15:25:20;60.67;;;21.92;;
72261;SDS011;60173;52.112;8.648;2023-03-03T15:30:52;66.70;;;24.25;;
72261;SDS011;60173;52.112;8.648;2023-03-03T15:41:55;63.22;;;23.13;;
72261;SDS011;60173;52.112;8.648;2023-03-03T15:44:37;66.90;;;23.48;;
72261;SDS011;60173;52.112;8.648;2023-03-03T15:49:49;55.88;;;20.88;;
72261;SDS011;60173;52.112;8.648;2023-03-03T15:57:58;53.67;;;20.67;;
72261;SDS011;60173;52.112;8.648;2023-03-03T16:00:50;53.83;;;21.15;;
72261;SDS011;60173;52.112;8.648;2023-03-03T16:03:26;51.78;;;20.05;;
72261;SDS011;60173;52.112;8.648;2023-03-03T16:09:07;53.83;;;20.23;;
72261;SDS011;60173;52.112;8.648;2023-03-03T16:11:50;53.50;;;20.67;;
72261;SDS011;60173;52.112;8.648;2023-03-03T16:17:12;54.00;;;21.47;;
72261;SDS011;60173;52.112;8.648;2023-03-03T16:20:02;55.53;;;20.20;;
72261;SDS011;60173;52.112;8.648;2023-03-03T16:28:31;52.30;;;19.98;;
72261;SDS011;60173;52.112;8.648;2023-03-03T16:31:09;52.72;;;20.73;;
72261;SDS011;60173;52.112;8.648;2023-03-03T16:33:48;50.58;;;20.27;;
72261;SDS011;60173;52.112;8.648;2023-03-03T16:38:55;53.95;;;21.83;;
72261;SDS011;60173;52.112;8.648;2023-03-03T16:47:11;59.55;;;22.92;;
72261;SDS011;60173;52.112;8.648;2023-03-03T16:49:52;53.40;;;21.42;;
72261;SDS011;60173;52.112;8.648;2023-03-03T16:52:35;55.83;;;21.23;;
72261;SDS011;60173;52.112;8.648;2023-03-03T17:00:23;54.35;;;21.73;;
72261;SDS011;60173;52.112;8.648;2023-03-03T17:05:52;62.20;;;23.88;;
72261;SDS011;60173;52.112;8.648;2023-03-03T17:08:36;62.72;;;23.75;;
72261;SDS011;60173;52.112;8.648;2023-03-03T17:12:17;57.13;;;22.52;;
72261;SDS011;60173;52.112;8.648;2023-03-03T17:15:05;64.38;;;24.25;;
72261;SDS011;60173;52.112;8.648;2023-03-03T17:20:15;64.50;;;25.08;;
72261;SDS011;60173;52.112;8.648;2023-03-03T17:25:46;62.13;;;25.38;;
72261;SDS011;60173;52.112;8.648;2023-03-03T17:31:34;70.10;;;25.67;;
72261;SDS011;60173;52.112;8.648;2023-03-03T17:45:29;66.45;;;26.58;;
72261;SDS011;60173;52.112;8.648;2023-03-03T17:48:08;69.60;;;27.48;;
72261;SDS011;60173;52.112;8.648;2023-03-03T17:54:26;70.57;;;27.75;;
72261;SDS011;60173;52.112;8.648;2023-03-03T17:56:54;73.25;;;29.10;;
72261;SDS011;60173;52.112;8.648;2023-03-03T17:59:35;65.35;;;25.13;;
72261;SDS011;60173;52.112;8.648;2023-03-03T18:18:19;72.47;;;29.15;;
72261;SDS011;60173;52.112;8.648;2023-03-03T18:23:46;75.90;;;29.83;;
72261;SDS011;60173;52.112;8.648;2023-03-03T18:32:04;77.35;;;27.98;;
72261;SDS011;60173;52.112;8.648;2023-03-03T18:34:41;70.32;;;28.13;;
72261;SDS011;60173;52.112;8.648;2023-03-03T18:37:09;68.03;;;27.50;;
72261;SDS011;60173;52.112;8.648;2023-03-03T18:42:33;72.22;;;27.85;;
72261;SDS011;60173;52.112;8.648;2023-03-03T18:45:08;69.03;;;27.98;;
72261;SDS011;60173;52.112;8.648;2023-03-03T18:55:52;67.20;;;25.50;;
72261;SDS011;60173;52.112;8.648;2023-03-03T19:00:46;60.17;;;24.67;;
72261;SDS011;60173;52.112;8.648;2023-03-03T19:05:58;59.95;;;24.25;;
72261;SDS011;60173;52.112;8.648;2023-03-03T19:11:26;62.83;;;24.50;;
72261;SDS011;60173;52.112;8.648;2023-03-03T19:16:56;57.03;;;22.95;;
72261;SDS011;60173;52.112;8.648;2023-03-03T19:19:33;59.13;;;23.65;;
72261;SDS011;60173;52.112;8.648;2023-03-03T19:22:28;58.75;;;24.13;;
72261;SDS011;60173;52.112;8.648;2023-03-03T19:27:39;58.10;;;24.83;;
72261;SDS011;60173;52.112;8.648;2023-03-03T19:30:16;62.67;;;25.58;;
72261;SDS011;60173;52.112;8.648;2023-03-03T19:38:33;52.70;;;22.23;;
72261;SDS011;60173;52.112;8.648;2023-03-03T19:41:21;55.47;;;24.80;;
72261;SDS011;60173;52.112;8.648;2023-03-03T19:49:23;59.00;;;23.88;;
72261;SDS011;60173;52.112;8.648;2023-03-03T19:52:04;51.55;;;23.08;;
72261;SDS011;60173;52.112;8.648;2023-03-03T19:54:48;52.13;;;21.92;;
72261;SDS011;60173;52.112;8.648;2023-03-03T20:00:43;56.92;;;23.60;;
72261;SDS011;60173;52.112;8.648;2023-03-03T20:03:24;56.60;;;24.40;;
72261;SDS011;60173;52.112;8.648;2023-03-03T20:14:24;59.17;;;24.98;;
72261;SDS011;60173;52.112;8.648;2023-03-03T20:17:09;59.13;;;24.38;;
72261;SDS011;60173;52.112;8.648;2023-03-03T20:25:21;59.17;;;23.63;;
72261;SDS011;60173;52.112;8.648;2023-03-03T20:34:13;50.28;;;22.25;;
72261;SDS011;60173;52.112;8.648;2023-03-03T20:56:40;43.08;;;21.27;;
72261;SDS011;60173;52.112;8.648;2023-03-03T20:58:57;48.08;;;21.88;;
72261;SDS011;60173;52.112;8.648;2023-03-03T21:01:36;48.78;;;21.38;;
72261;SDS011;60173;52.112;8.648;2023-03-03T21:04:16;47.75;;;21.95;;